createdAt,value
2023-05-06T00:00:50.992Z,63.29
2023-05-06T00:03:17.206Z,63.33
2023-05-06T00:05:43.387Z,63.25
2023-05-06T00:08:09.521Z,63.31
2023-05-06T00:10:35.614Z,63.18
2023-05-06T00:13:01.748Z,63.27
2023-05-06T00:15:30.131Z,63.29
2023-05-06T00:17:57.652Z,63.33
2023-05-06T00:20:23.765Z,63.14
2023-05-06T00:22:49.920Z,63.29
2023-05-06T00:25:16.048Z,63.23
2023-05-06T00:27:42.149Z,63.15
2023-05-06T00:30:08.252Z,63.21
2023-05-06T00:32:34.384Z,63.36
2023-05-06T00:35:00.771Z,63.22
2023-05-06T00:37:26.934Z,63.18
2023-05-06T00:39:53.084Z,63.19
2023-05-06T00:42:19.191Z,63.26
2023-05-06T00:44:45.330Z,63.21
2023-05-06T00:47:11.434Z,63.24
2023-05-06T00:49:37.547Z,63.30
2023-05-06T00:52:03.664Z,63.11
2023-05-06T00:54:29.862Z,63.19
2023-05-06T00:56:56.048Z,63.25
2023-05-06T00:59:22.645Z,62.85
2023-05-06T01:01:48.731Z,63.12
2023-05-06T01:04:14.833Z,63.18
2023-05-06T01:06:40.965Z,63.24
2023-05-06T01:09:07.078Z,63.23
2023-05-06T01:11:33.180Z,63.10
2023-05-06T01:13:59.288Z,63.13
2023-05-06T01:16:25.470Z,63.19
2023-05-06T01:18:51.614Z,63.19
2023-05-06T01:21:17.746Z,63.12
2023-05-06T01:23:43.846Z,63.10
2023-05-06T01:26:09.944Z,63.17
2023-05-06T01:28:36.563Z,63.10
2023-05-06T01:31:02.681Z,63.11
2023-05-06T01:33:28.870Z,63.07
2023-05-06T01:35:55.040Z,63.21
2023-05-06T01:38:21.117Z,63.25
2023-05-06T01:40:47.212Z,63.15
2023-05-06T01:43:13.349Z,63.13
2023-05-06T01:45:39.444Z,63.13
2023-05-06T01:48:05.552Z,63.09
2023-05-06T01:50:32.065Z,63.18
2023-05-06T01:52:58.160Z,63.15
2023-05-06T01:55:24.244Z,63.11
2023-05-06T01:57:50.347Z,63.10
2023-05-06T02:00:16.436Z,63.14
2023-05-06T02:02:42.719Z,63.11
2023-05-06T02:05:09.185Z,63.08
2023-05-06T02:07:35.493Z,63.21
2023-05-06T02:10:01.620Z,63.16
2023-05-06T02:12:27.734Z,63.08
2023-05-06T02:14:53.815Z,63.16
2023-05-06T02:17:19.910Z,63.18
2023-05-06T02:19:46.045Z,63.19
2023-05-06T02:22:12.160Z,62.78
2023-05-06T02:24:38.255Z,63.20
2023-05-06T02:27:04.377Z,63.10
2023-05-06T02:29:30.495Z,63.07
2023-05-06T02:31:56.669Z,63.17
2023-05-06T02:34:22.817Z,63.08
2023-05-06T02:36:48.908Z,63.20
2023-05-06T02:39:15.006Z,63.09
2023-05-06T02:41:41.121Z,63.09
2023-05-06T02:44:07.215Z,63.19
2023-05-06T02:46:33.316Z,63.14
2023-05-06T02:48:59.426Z,63.04
2023-05-06T02:51:25.522Z,63.07
2023-05-06T02:53:51.624Z,63.16
2023-05-06T02:56:17.765Z,63.17
2023-05-06T02:58:43.868Z,63.03
2023-05-06T03:01:10.008Z,63.06
2023-05-06T03:03:36.346Z,63.11
2023-05-06T03:06:02.455Z,63.09
2023-05-06T03:08:28.553Z,63.04
2023-05-06T03:10:54.681Z,63.16
2023-05-06T03:13:20.799Z,63.25
2023-05-06T03:15:46.904Z,62.97
2023-05-06T03:18:13.037Z,63.09
2023-05-06T03:20:39.123Z,63.12
2023-05-06T03:23:05.235Z,63.02
2023-05-06T03:25:31.372Z,63.16
2023-05-06T03:27:57.485Z,63.00
2023-05-06T03:30:23.596Z,62.95
2023-05-06T03:32:49.743Z,62.95
2023-05-06T03:35:15.857Z,63.15
2023-05-06T03:37:41.958Z,63.04
2023-05-06T03:40:08.079Z,63.03
2023-05-06T03:42:34.180Z,63.27
2023-05-06T03:45:00.281Z,63.13
2023-05-06T03:47:26.416Z,63.08
2023-05-06T03:49:52.539Z,63.15
2023-05-06T03:52:18.645Z,63.03
2023-05-06T03:54:44.751Z,63.01
2023-05-06T03:57:10.833Z,63.04
2023-05-06T03:59:36.922Z,63.15
2023-05-06T04:02:03.094Z,63.00
2023-05-06T04:04:29.299Z,63.18
2023-05-06T04:06:55.427Z,63.06
2023-05-06T04:09:21.536Z,63.09
2023-05-06T04:11:47.679Z,63.14
2023-05-06T04:14:13.784Z,63.13
2023-05-06T04:16:40.019Z,62.91
2023-05-06T04:19:06.697Z,63.06
2023-05-06T04:21:32.891Z,62.99
2023-05-06T04:23:59.019Z,63.10
2023-05-06T04:26:25.121Z,63.14
2023-05-06T04:28:51.228Z,63.13
2023-05-06T04:31:17.878Z,63.08
2023-05-06T04:33:44.008Z,63.14
2023-05-06T04:36:10.117Z,62.97
2023-05-06T04:38:36.247Z,63.03
2023-05-06T04:41:02.342Z,63.15
2023-05-06T04:43:28.428Z,63.08
2023-05-06T04:45:54.592Z,63.15
2023-05-06T04:48:20.718Z,63.16
2023-05-06T04:50:46.844Z,63.10
2023-05-06T04:53:12.944Z,63.02
2023-05-06T04:55:39.038Z,63.13
2023-05-06T04:58:05.122Z,63.03
2023-05-06T05:00:31.288Z,63.15
2023-05-06T05:02:57.471Z,63.05
2023-05-06T05:05:23.645Z,63.00
2023-05-06T05:07:49.898Z,63.14
2023-05-06T05:10:15.988Z,63.05
2023-05-06T05:12:42.180Z,63.12
2023-05-06T05:15:08.495Z,63.12
2023-05-06T05:17:34.846Z,63.09
2023-05-06T05:20:00.993Z,63.07
2023-05-06T05:22:27.091Z,63.13
2023-05-06T05:24:53.186Z,63.09
2023-05-06T05:27:19.302Z,63.14
2023-05-06T05:29:45.420Z,63.08
2023-05-06T05:32:11.502Z,63.05
2023-05-06T05:34:37.596Z,63.17
2023-05-06T05:37:03.696Z,62.98
2023-05-06T05:39:29.799Z,63.14
2023-05-06T05:41:55.884Z,63.13
2023-05-06T05:44:22.003Z,63.04
2023-05-06T05:46:48.500Z,63.16
2023-05-06T05:49:14.620Z,63.11
2023-05-06T05:51:40.733Z,62.96
2023-05-06T05:54:06.836Z,63.11
2023-05-06T05:56:32.946Z,63.01
2023-05-06T05:58:59.102Z,63.08
2023-05-06T06:01:25.206Z,63.08
2023-05-06T06:03:51.613Z,63.13
2023-05-06T06:06:17.954Z,62.88
2023-05-06T06:08:44.044Z,62.97
2023-05-06T06:11:10.184Z,62.97
2023-05-06T06:13:36.332Z,63.15
2023-05-06T06:16:02.495Z,63.10
2023-05-06T06:18:29.039Z,63.03
2023-05-06T06:20:55.172Z,63.03
2023-05-06T06:23:21.257Z,63.22
2023-05-06T06:25:47.351Z,63.04
2023-05-06T06:28:13.453Z,63.03
2023-05-06T06:30:39.559Z,63.09
2023-05-06T06:33:05.705Z,63.16
2023-05-06T06:35:31.853Z,63.13
2023-05-06T06:37:57.979Z,62.96
2023-05-06T06:40:24.069Z,63.15
2023-05-06T06:42:50.228Z,63.10
2023-05-06T06:45:16.318Z,63.11
2023-05-06T06:47:42.460Z,63.01
2023-05-06T06:50:08.611Z,63.09
2023-05-06T06:52:34.712Z,62.97
2023-05-06T06:55:00.789Z,63.01
2023-05-06T06:57:26.903Z,63.12
2023-05-06T06:59:53.006Z,63.09
2023-05-06T07:02:19.153Z,63.08
2023-05-06T07:04:45.348Z,62.97
2023-05-06T07:07:11.555Z,62.92
2023-05-06T07:09:39.528Z,63.05
2023-05-06T07:12:06.538Z,63.03
2023-05-06T07:14:32.650Z,62.99
2023-05-06T07:16:58.781Z,63.05
2023-05-06T07:19:24.910Z,63.10
2023-05-06T07:21:51.070Z,62.90
2023-05-06T07:24:17.187Z,63.03
2023-05-06T07:26:43.314Z,63.08
2023-05-06T07:29:09.401Z,63.11
2023-05-06T07:31:35.562Z,63.01
2023-05-06T07:34:01.767Z,63.01
2023-05-06T07:36:27.860Z,63.00
2023-05-06T07:38:53.987Z,63.06
2023-05-06T07:41:20.121Z,63.04
2023-05-06T07:43:46.247Z,62.96
2023-05-06T07:46:12.386Z,63.08
2023-05-06T07:48:40.168Z,63.08
2023-05-06T07:51:06.311Z,63.06
2023-05-06T07:53:32.413Z,63.01
2023-05-06T07:55:58.529Z,63.05
2023-05-06T07:58:24.839Z,63.09
2023-05-06T08:00:50.997Z,62.90
2023-05-06T08:03:17.267Z,63.02
2023-05-06T08:05:43.573Z,62.99
2023-05-06T08:08:09.672Z,63.02
2023-05-06T08:10:35.805Z,62.93
2023-05-06T08:13:01.985Z,63.02
2023-05-06T08:15:28.116Z,62.94
2023-05-06T08:17:54.237Z,63.11
2023-05-06T08:20:20.378Z,63.01
2023-05-06T08:22:46.481Z,62.92
2023-05-06T08:25:12.831Z,62.95
2023-05-06T08:27:39.150Z,63.07
2023-05-06T08:30:05.253Z,62.95
2023-05-06T08:32:31.410Z,62.98
2023-05-06T08:34:57.531Z,62.98
2023-05-06T08:37:23.632Z,62.87
2023-05-06T08:39:49.799Z,62.97
2023-05-06T08:42:15.890Z,62.96
2023-05-06T08:44:42.011Z,62.96
2023-05-06T08:47:08.113Z,62.94
2023-05-06T08:49:34.232Z,63.05
2023-05-06T08:52:00.341Z,62.94
2023-05-06T08:54:26.499Z,62.96
2023-05-06T08:56:52.638Z,63.06
2023-05-06T08:59:18.735Z,62.91
2023-05-06T09:01:44.945Z,62.86
2023-05-06T09:04:11.118Z,62.89
2023-05-06T09:06:37.228Z,62.96
2023-05-06T09:09:03.343Z,62.85
2023-05-06T09:11:29.523Z,62.83
2023-05-06T09:13:55.662Z,62.93
2023-05-06T09:16:22.329Z,62.94
2023-05-06T09:18:48.431Z,62.98
2023-05-06T09:21:14.518Z,63.00
2023-05-06T09:23:40.656Z,62.92
2023-05-06T09:26:06.747Z,62.79
2023-05-06T09:28:32.866Z,62.96
2023-05-06T09:30:59.024Z,62.87
2023-05-06T09:33:25.149Z,62.77
2023-05-06T09:35:51.252Z,62.90
2023-05-06T09:38:17.379Z,62.87
2023-05-06T09:40:43.475Z,62.96
2023-05-06T09:43:09.564Z,62.83
2023-05-06T09:45:35.671Z,62.82
2023-05-06T09:48:01.813Z,62.85
2023-05-06T09:50:27.952Z,62.91
2023-05-06T09:52:54.071Z,62.79
2023-05-06T09:55:20.165Z,62.92
2023-05-06T09:57:46.258Z,62.81
2023-05-06T10:00:12.564Z,62.87
2023-05-06T10:02:38.929Z,62.94
2023-05-06T10:05:05.489Z,62.91
2023-05-06T10:07:31.747Z,62.85
2023-05-06T10:09:57.854Z,62.84
2023-05-06T10:12:23.996Z,62.80
2023-05-06T10:14:50.120Z,62.88
2023-05-06T10:17:16.220Z,62.81
2023-05-06T10:19:42.310Z,62.85
2023-05-06T10:22:08.541Z,62.73
2023-05-06T10:24:34.640Z,62.77
2023-05-06T10:27:00.743Z,62.85
2023-05-06T10:29:26.868Z,62.85
2023-05-06T10:31:53.024Z,62.86
2023-05-06T10:34:19.140Z,62.70
2023-05-06T10:36:45.251Z,62.99
2023-05-06T10:39:11.341Z,62.79
2023-05-06T10:41:37.496Z,62.85
2023-05-06T10:44:03.632Z,62.93
2023-05-06T10:46:29.813Z,62.92
2023-05-06T10:48:55.925Z,62.81
2023-05-06T10:51:22.175Z,62.81
2023-05-06T10:53:48.274Z,62.89
2023-05-06T10:56:14.383Z,63.00
2023-05-06T10:58:40.501Z,62.95
2023-05-06T11:01:06.663Z,63.18
2023-05-06T11:03:32.798Z,62.83
2023-05-06T11:05:59.062Z,62.90
2023-05-06T11:08:25.168Z,62.89
2023-05-06T11:10:51.346Z,62.95
2023-05-06T11:13:17.648Z,62.87
2023-05-06T11:15:43.815Z,62.83
2023-05-06T11:18:09.921Z,62.83
2023-05-06T11:20:36.022Z,62.77
2023-05-06T11:23:02.118Z,62.81
2023-05-06T11:25:28.218Z,62.94
2023-05-06T11:27:54.327Z,62.93
2023-05-06T11:30:20.461Z,62.84
2023-05-06T11:32:46.669Z,62.83
2023-05-06T11:35:12.838Z,62.90
2023-05-06T11:37:39.005Z,62.80
2023-05-06T11:40:05.126Z,62.88
2023-05-06T11:42:31.243Z,62.95
2023-05-06T11:44:57.389Z,62.92
2023-05-06T11:47:23.511Z,62.92
2023-05-06T11:49:49.652Z,62.88
2023-05-06T11:52:15.763Z,62.79
2023-05-06T11:54:41.921Z,62.94
2023-05-06T11:57:08.098Z,62.91
2023-05-06T11:59:34.201Z,62.89
2023-05-06T12:02:00.312Z,62.88
2023-05-06T12:04:26.466Z,62.84
2023-05-06T12:06:52.555Z,62.89
2023-05-06T12:09:18.654Z,62.90
2023-05-06T12:11:45.092Z,62.86
2023-05-06T12:14:11.253Z,62.98
2023-05-06T12:16:37.441Z,62.88
2023-05-06T12:19:03.615Z,62.86
2023-05-06T12:21:29.715Z,62.86
2023-05-06T12:23:55.807Z,62.94
2023-05-06T12:26:22.412Z,62.81
2023-05-06T12:28:48.520Z,62.74
2023-05-06T12:31:14.667Z,62.74
2023-05-06T12:33:40.796Z,62.94
2023-05-06T12:36:06.915Z,62.78
2023-05-06T12:38:33.026Z,62.91
2023-05-06T12:40:59.161Z,62.91
2023-05-06T12:43:25.272Z,62.91
2023-05-06T12:45:51.383Z,62.88
2023-05-06T12:48:17.513Z,62.87
2023-05-06T12:50:43.619Z,62.79
2023-05-06T12:53:09.741Z,62.99
2023-05-06T12:55:35.874Z,62.95
2023-05-06T12:58:01.974Z,62.81
2023-05-06T13:00:28.069Z,62.94
2023-05-06T13:02:54.257Z,62.97
2023-05-06T13:05:20.396Z,62.96
2023-05-06T13:07:46.489Z,62.90
2023-05-06T13:10:12.866Z,62.85
2023-05-06T13:12:39.282Z,62.99
2023-05-06T13:15:05.426Z,62.95
2023-05-06T13:17:31.569Z,62.87
2023-05-06T13:19:57.680Z,62.96
2023-05-06T13:22:23.759Z,62.97
2023-05-06T13:24:49.875Z,62.82
2023-05-06T13:27:15.967Z,63.08
2023-05-06T13:29:42.069Z,62.93
2023-05-06T13:32:09.114Z,62.92
2023-05-06T13:34:35.338Z,62.85
2023-05-06T13:37:01.456Z,63.06
2023-05-06T13:39:27.830Z,62.88
2023-05-06T13:41:53.967Z,63.02
2023-05-06T13:44:20.076Z,62.94
2023-05-06T13:46:46.517Z,62.92
2023-05-06T13:49:12.688Z,62.92
2023-05-06T13:51:38.933Z,63.09
2023-05-06T13:54:05.222Z,62.88
2023-05-06T13:56:31.347Z,62.96
2023-05-06T13:58:57.464Z,62.90
2023-05-06T14:01:23.697Z,62.89
2023-05-06T14:03:49.843Z,62.99
2023-05-06T14:06:15.944Z,62.90
2023-05-06T14:08:42.074Z,63.03
2023-05-06T14:11:08.157Z,63.07
2023-05-06T14:13:34.276Z,63.02
2023-05-06T14:16:00.464Z,63.00
2023-05-06T14:18:26.757Z,62.96
2023-05-06T14:20:52.908Z,63.01
2023-05-06T14:23:19.014Z,63.13
2023-05-06T14:25:45.111Z,63.13
2023-05-06T14:28:11.241Z,63.05
2023-05-06T14:30:37.374Z,63.16
2023-05-06T14:33:03.542Z,62.98
2023-05-06T14:35:29.677Z,63.04
2023-05-06T14:37:55.933Z,63.07
2023-05-06T14:40:22.023Z,63.01
2023-05-06T14:42:48.114Z,62.97
2023-05-06T14:45:14.225Z,63.11
2023-05-06T14:47:40.334Z,63.05
2023-05-06T14:50:06.491Z,63.11
2023-05-06T14:52:32.598Z,63.12
2023-05-06T14:54:58.721Z,63.03
2023-05-06T14:57:24.818Z,63.03
2023-05-06T14:59:50.946Z,63.22
2023-05-06T15:02:17.052Z,63.04
2023-05-06T15:04:43.154Z,63.07
2023-05-06T15:07:09.270Z,63.15
2023-05-06T15:09:35.378Z,63.21
2023-05-06T15:12:01.481Z,63.26
2023-05-06T15:14:27.584Z,63.12
2023-05-06T15:16:53.803Z,63.35
2023-05-06T15:19:19.950Z,63.15
2023-05-06T15:21:46.068Z,63.40
2023-05-06T15:24:12.174Z,63.37
2023-05-06T15:26:38.293Z,63.23
2023-05-06T15:29:04.432Z,63.29
2023-05-06T15:31:30.566Z,63.21
2023-05-06T15:33:58.847Z,63.36
2023-05-06T15:36:26.567Z,63.30
2023-05-06T15:38:52.665Z,63.17
2023-05-06T15:41:18.804Z,63.21
2023-05-06T15:43:44.912Z,63.21
2023-05-06T15:46:11.059Z,63.38
2023-05-06T15:48:37.213Z,63.26
2023-05-06T15:51:03.827Z,63.22
2023-05-06T15:53:30.206Z,63.35
2023-05-06T15:56:03.547Z,63.24
2023-05-06T15:58:38.064Z,63.32
2023-05-06T16:01:04.190Z,63.28
2023-05-06T16:03:30.350Z,63.35
2023-05-06T16:05:56.597Z,63.51
2023-05-06T16:08:22.698Z,63.34
2023-05-06T16:10:48.809Z,63.40
2023-05-06T16:13:15.011Z,63.58
2023-05-06T16:15:41.153Z,63.51
2023-05-06T16:18:07.265Z,63.42
2023-05-06T16:20:33.394Z,63.48
2023-05-06T16:22:59.745Z,63.44
2023-05-06T16:25:25.873Z,63.44
2023-05-06T16:27:51.994Z,63.59
2023-05-06T16:30:18.114Z,63.55
2023-05-06T16:32:44.551Z,63.44
2023-05-06T16:35:10.785Z,63.60
2023-05-06T16:37:36.888Z,63.62
2023-05-06T16:40:03.006Z,63.50
2023-05-06T16:42:29.672Z,63.53
2023-05-06T16:44:55.765Z,63.59
2023-05-06T16:47:22.014Z,63.49
2023-05-06T16:49:48.311Z,63.43
2023-05-06T16:52:14.393Z,63.54
2023-05-06T16:54:40.490Z,63.44
2023-05-06T16:57:06.588Z,63.48
2023-05-06T16:59:32.983Z,63.54
2023-05-06T17:01:59.119Z,63.54
2023-05-06T17:04:25.256Z,63.15
2023-05-06T17:06:51.404Z,63.45
2023-05-06T17:09:17.492Z,63.52
2023-05-06T17:11:43.604Z,63.70
2023-05-06T17:14:09.698Z,63.63
2023-05-06T17:16:35.905Z,63.59
2023-05-06T17:19:02.319Z,63.45
2023-05-06T17:21:28.457Z,63.51
2023-05-06T17:23:54.626Z,63.62
2023-05-06T17:26:20.763Z,63.36
2023-05-06T17:28:46.866Z,63.58
2023-05-06T17:31:12.969Z,63.59
2023-05-06T17:33:39.085Z,63.49
2023-05-06T17:36:05.201Z,63.44
2023-05-06T17:38:31.293Z,63.54
2023-05-06T17:40:57.457Z,63.47
2023-05-06T17:43:23.568Z,63.45
2023-05-06T17:45:49.719Z,63.47
2023-05-06T17:48:15.919Z,63.50
2023-05-06T17:50:42.005Z,63.55
2023-05-06T17:53:08.121Z,63.65
2023-05-06T17:55:34.299Z,63.49
2023-05-06T17:58:00.409Z,63.79
2023-05-06T18:00:26.501Z,63.52
2023-05-06T18:02:52.688Z,63.52
2023-05-06T18:05:18.899Z,63.62
2023-05-06T18:07:44.993Z,63.50
2023-05-06T18:10:11.133Z,63.50
2023-05-06T18:12:37.476Z,63.66
2023-05-06T18:15:03.833Z,63.55
2023-05-06T18:17:30.023Z,63.43
2023-05-06T18:19:56.186Z,63.42
2023-05-06T18:22:22.288Z,63.43
2023-05-06T18:24:48.397Z,63.42
2023-05-06T18:27:14.501Z,63.42
2023-05-06T18:29:40.600Z,63.41
2023-05-06T18:32:06.861Z,63.40
2023-05-06T18:34:33.060Z,63.47
2023-05-06T18:36:59.144Z,63.40
2023-05-06T18:39:25.258Z,63.31
2023-05-06T18:41:51.360Z,63.41
2023-05-06T18:44:17.441Z,63.40
2023-05-06T18:46:43.542Z,63.39
2023-05-06T18:49:09.650Z,63.42
2023-05-06T18:51:35.757Z,63.38
2023-05-06T18:54:01.870Z,63.43
2023-05-06T18:56:28.077Z,63.50
2023-05-06T18:58:54.218Z,63.42
2023-05-06T19:01:20.366Z,63.41
2023-05-06T19:03:46.515Z,63.57
2023-05-06T19:06:12.697Z,63.32
2023-05-06T19:08:38.826Z,63.41
2023-05-06T19:11:04.947Z,63.40
2023-05-06T19:13:31.086Z,63.63
2023-05-06T19:15:57.198Z,63.54
2023-05-06T19:18:23.290Z,63.46
2023-05-06T19:20:49.387Z,63.38
2023-05-06T19:23:15.494Z,63.45
2023-05-06T19:25:41.574Z,63.45
2023-05-06T19:28:07.659Z,63.58
2023-05-06T19:30:33.812Z,63.52
2023-05-06T19:32:59.995Z,63.35
2023-05-06T19:35:26.200Z,63.48
2023-05-06T19:37:52.343Z,63.41
2023-05-06T19:40:18.457Z,63.49
2023-05-06T19:42:44.560Z,63.38
2023-05-06T19:45:10.964Z,63.47
2023-05-06T19:47:37.301Z,63.35
2023-05-06T19:50:03.432Z,63.19
2023-05-06T19:52:29.595Z,63.45
2023-05-06T19:54:55.709Z,63.51
2023-05-06T19:57:21.815Z,63.49
2023-05-06T19:59:47.921Z,63.51
2023-05-06T20:02:14.017Z,63.39
2023-05-06T20:04:40.123Z,63.47
2023-05-06T20:07:06.246Z,63.39
2023-05-06T20:09:32.333Z,63.53
2023-05-06T20:11:58.593Z,63.39
2023-05-06T20:14:24.740Z,63.30
2023-05-06T20:16:50.821Z,63.42
2023-05-06T20:19:16.917Z,63.37
2023-05-06T20:21:43.021Z,63.49
2023-05-06T20:24:09.129Z,63.39
2023-05-06T20:26:35.263Z,63.40
2023-05-06T20:29:01.392Z,63.29
2023-05-06T20:31:27.539Z,63.32
2023-05-06T20:33:53.675Z,63.53
2023-05-06T20:36:19.828Z,63.37
2023-05-06T20:38:45.909Z,63.40
2023-05-06T20:41:12.004Z,63.31
2023-05-06T20:43:38.130Z,63.32
2023-05-06T20:46:04.265Z,63.40
2023-05-06T20:48:30.368Z,63.40
2023-05-06T20:50:56.488Z,63.44
2023-05-06T20:53:22.586Z,63.28
2023-05-06T20:55:48.745Z,63.42
2023-05-06T20:58:15.351Z,63.31
2023-05-06T21:00:41.458Z,63.30
2023-05-06T21:03:07.651Z,63.42
2023-05-06T21:05:33.936Z,63.40
2023-05-06T21:08:00.050Z,63.28
2023-05-06T21:10:26.153Z,63.24
2023-05-06T21:12:52.307Z,63.32
2023-05-06T21:15:18.425Z,63.32
2023-05-06T21:17:44.827Z,63.26
2023-05-06T21:20:11.085Z,63.29
2023-05-06T21:22:37.175Z,63.43
2023-05-06T21:25:03.261Z,63.28
2023-05-06T21:27:29.543Z,63.40
2023-05-06T21:29:55.649Z,63.27
2023-05-06T21:32:21.782Z,63.35
2023-05-06T21:34:47.966Z,63.33
2023-05-06T21:37:14.058Z,63.34
2023-05-06T21:39:40.153Z,63.22
2023-05-06T21:42:06.275Z,63.40
2023-05-06T21:44:32.373Z,63.30
2023-05-06T21:46:58.488Z,63.37
2023-05-06T21:49:24.968Z,63.40
2023-05-06T21:51:51.108Z,63.36
2023-05-06T21:54:17.266Z,63.31
2023-05-06T21:56:43.404Z,63.25
2023-05-06T21:59:09.506Z,63.33
2023-05-06T22:01:35.676Z,63.26
2023-05-06T22:04:01.991Z,63.25
2023-05-06T22:06:28.179Z,63.40
2023-05-06T22:08:54.257Z,63.25
2023-05-06T22:11:20.358Z,63.27
2023-05-06T22:13:46.462Z,63.29
2023-05-06T22:16:12.588Z,63.35
2023-05-06T22:18:38.777Z,63.28
2023-05-06T22:21:04.892Z,63.30
2023-05-06T22:23:30.986Z,63.38
2023-05-06T22:25:58.515Z,63.60
2023-05-06T22:28:25.274Z,63.44
2023-05-06T22:30:51.387Z,63.25
2023-05-06T22:33:17.505Z,63.30
2023-05-06T22:35:43.605Z,63.42
2023-05-06T22:38:09.725Z,63.38
2023-05-06T22:40:35.880Z,63.33
2023-05-06T22:43:02.006Z,63.29
2023-05-06T22:45:28.140Z,63.42
2023-05-06T22:47:54.322Z,63.25
2023-05-06T22:50:20.454Z,63.35
2023-05-06T22:52:46.547Z,63.42
2023-05-06T22:55:13.425Z,63.33
2023-05-06T22:57:39.636Z,63.45
2023-05-06T23:00:05.723Z,63.32
2023-05-06T23:02:32.309Z,63.30
2023-05-06T23:04:58.434Z,63.29
2023-05-06T23:07:24.605Z,63.47
2023-05-06T23:09:50.753Z,63.45
2023-05-06T23:12:16.956Z,63.35
2023-05-06T23:14:43.066Z,63.44
2023-05-06T23:17:09.327Z,63.49
2023-05-06T23:19:35.506Z,63.46
2023-05-06T23:22:01.629Z,63.39
2023-05-06T23:24:27.767Z,63.30
2023-05-06T23:26:54.011Z,63.27
2023-05-06T23:29:20.188Z,63.40
2023-05-06T23:31:46.534Z,63.43
2023-05-06T23:34:12.685Z,63.27
2023-05-06T23:36:38.825Z,63.29
2023-05-06T23:39:05.052Z,63.41
2023-05-06T23:41:31.216Z,63.38
2023-05-06T23:43:57.396Z,63.42
2023-05-06T23:46:23.600Z,63.33
2023-05-06T23:48:49.806Z,63.45
2023-05-06T23:51:15.978Z,63.34
2023-05-06T23:53:42.217Z,63.46
2023-05-06T23:56:08.423Z,63.30
2023-05-06T23:58:34.645Z,63.42
